Time;durP1;ratioP1;P1;durP2;ratioP2;P2;SDS_P1;SDS_P2;PMS_P1;PMS_P2;Temp;Humidity;BMP_temperature;BMP_pressure;BME280_temperature;BME280_humidity;BME280_pressure;Samples;Min_cycle;Max_cycle;Signal;HPM_P1;HPM_P2
2020/12/06 00:00:15;;;;;;;23.92;13.75;;;3.70;99.90;;;;;;5097182;28;20229;-58
2020/12/06 00:02:40;;;;;;;22.77;13.85;;;3.70;99.90;;;;;;5097113;28;20168;-58
2020/12/06 00:05:10;;;;;;;20.33;12.45;;;3.80;99.90;;;;;;5096756;28;20170;-58
2020/12/06 00:07:37;;;;;;;23.00;13.25;;;3.80;99.90;;;;;;5096665;28;20223;-58
2020/12/06 00:10:05;;;;;;;23.10;12.98;;;3.80;99.90;;;;;;5096710;28;20203;-58
2020/12/06 00:12:37;;;;;;;21.17;12.95;;;3.80;99.90;;;;;;5096525;28;20159;-58
2020/12/06 00:15:07;;;;;;;22.17;13.13;;;3.80;99.90;;;;;;5096714;28;20160;-58
2020/12/06 00:17:32;;;;;;;22.17;13.52;;;3.80;99.90;;;;;;5096708;28;20525;-58
2020/12/06 00:19:58;;;;;;;21.92;13.48;;;3.80;99.90;;;;;;5096261;28;20164;-58
2020/12/06 00:22:23;;;;;;;21.13;13.02;;;3.80;99.90;;;;;;5096264;28;20497;-58
2020/12/06 00:24:49;;;;;;;21.80;13.30;;;3.80;99.90;;;;;;5096356;28;20615;-58
2020/12/06 00:27:15;;;;;;;21.90;13.50;;;3.80;99.90;;;;;;5096907;28;20233;-58
2020/12/06 00:29:41;;;;;;;22.48;14.13;;;3.80;99.90;;;;;;5096502;28;20543;-58
2020/12/06 00:32:06;;;;;;;21.75;13.88;;;3.80;99.90;;;;;;5096506;28;20163;-58
2020/12/06 00:34:32;;;;;;;21.90;12.93;;;3.80;99.90;;;;;;5096486;28;20174;-58
2020/12/06 00:36:57;;;;;;;21.50;13.05;;;3.80;99.90;;;;;;5096527;28;20156;-58
2020/12/06 00:39:23;;;;;;;19.67;12.55;;;3.80;99.90;;;;;;5096681;28;20199;-58
2020/12/06 00:41:48;;;;;;;19.75;13.10;;;3.90;99.90;;;;;;5096267;28;20170;-58
2020/12/06 00:44:14;;;;;;;21.67;13.52;;;3.80;99.90;;;;;;5096319;28;20168;-58
2020/12/06 00:46:39;;;;;;;24.50;13.60;;;3.90;99.90;;;;;;5095780;28;20228;-58
2020/12/06 00:49:05;;;;;;;21.30;14.13;;;3.90;99.90;;;;;;5095995;28;20186;-58
2020/12/06 00:51:31;;;;;;;23.33;14.57;;;3.90;99.90;;;;;;5096406;28;20178;-58
2020/12/06 00:53:57;;;;;;;22.40;14.15;;;3.90;99.90;;;;;;5095075;28;20619;-58
2020/12/06 00:56:22;;;;;;;23.00;14.18;;;3.90;99.90;;;;;;5095814;28;20171;-58
2020/12/06 00:58:48;;;;;;;23.15;14.15;;;3.90;99.90;;;;;;5095823;28;20229;-58
2020/12/06 01:01:15;;;;;;;22.70;14.25;;;3.90;99.90;;;;;;5095889;28;20160;-58
2020/12/06 01:03:40;;;;;;;22.38;14.43;;;3.80;99.90;;;;;;5095671;28;20665;-58
2020/12/06 01:06:17;;;;;;;20.80;13.57;;;3.80;99.90;;;;;;5095851;28;20185;-58
2020/12/06 01:08:43;;;;;;;23.95;14.38;;;3.80;99.90;;;;;;5096174;28;20251;-58
2020/12/06 01:11:13;;;;;;;19.73;13.70;;;3.80;99.90;;;;;;5095634;28;20179;-58
2020/12/06 01:13:39;;;;;;;22.67;14.55;;;3.80;99.90;;;;;;5095750;28;20465;-58
2020/12/06 01:16:05;;;;;;;22.65;14.70;;;3.70;99.90;;;;;;5095243;28;20658;-58
2020/12/06 01:18:30;;;;;;;22.88;15.10;;;3.70;99.90;;;;;;5095332;28;20287;-59
2020/12/06 01:20:56;;;;;;;23.92;14.57;;;3.60;99.90;;;;;;5095176;28;20170;-58
2020/12/06 01:23:22;;;;;;;23.20;15.05;;;3.60;99.90;;;;;;5095525;28;20167;-58
2020/12/06 01:25:48;;;;;;;24.17;15.05;;;3.50;99.90;;;;;;5095469;28;20168;-58
2020/12/06 01:28:13;;;;;;;24.92;14.73;;;3.50;99.90;;;;;;5095225;28;20179;-58
2020/12/06 01:30:39;;;;;;;23.75;14.57;;;3.40;99.90;;;;;;5095090;28;20507;-58
2020/12/06 01:33:04;;;;;;;23.23;14.57;;;3.40;99.90;;;;;;5095146;28;20221;-58
2020/12/06 01:35:30;;;;;;;23.17;14.95;;;3.40;99.90;;;;;;5095210;28;20269;-58
2020/12/06 01:37:55;;;;;;;24.65;15.07;;;3.40;99.90;;;;;;5094969;28;20233;-58
2020/12/06 01:40:21;;;;;;;26.20;14.65;;;3.40;99.90;;;;;;5094970;28;20168;-58
2020/12/06 01:42:46;;;;;;;24.77;15.32;;;3.30;99.90;;;;;;5094969;28;20164;-58
2020/12/06 01:45:12;;;;;;;23.83;14.65;;;3.30;99.90;;;;;;5094857;28;20529;-58
2020/12/06 01:47:37;;;;;;;24.85;14.52;;;3.20;99.90;;;;;;5095005;28;20156;-57
2020/12/06 01:50:03;;;;;;;25.02;14.88;;;3.20;99.90;;;;;;5094852;28;20160;-58
2020/12/06 01:52:29;;;;;;;25.25;14.60;;;3.20;99.90;;;;;;5095141;28;20167;-58
2020/12/06 01:54:56;;;;;;;26.92;15.02;;;3.10;99.90;;;;;;5094844;28;20168;-58
2020/12/06 01:57:21;;;;;;;25.75;15.07;;;3.10;99.90;;;;;;5093955;28;20595;-58
2020/12/06 01:59:47;;;;;;;26.08;15.50;;;3.10;99.90;;;;;;5095037;28;20167;-58
2020/12/06 02:02:14;;;;;;;24.05;15.02;;;3.10;99.90;;;;;;5095871;28;20167;-58
2020/12/06 02:04:41;;;;;;;25.80;15.32;;;3.10;99.90;;;;;;5097401;28;20167;-58
2020/12/06 02:07:06;;;;;;;25.77;15.25;;;3.10;99.90;;;;;;5099125;28;20167;-58
2020/12/06 02:09:32;;;;;;;25.70;14.95;;;3.10;99.90;;;;;;5098933;28;20178;-58
2020/12/06 02:11:58;;;;;;;25.67;15.90;;;3.10;99.90;;;;;;5098836;28;20545;-58
2020/12/06 02:14:23;;;;;;;25.23;14.77;;;3.10;99.90;;;;;;5099092;28;20501;-58
2020/12/06 02:16:53;;;;;;;26.00;14.48;;;3.20;99.90;;;;;;5098743;28;20168;-58
2020/12/06 02:19:19;;;;;;;24.55;14.63;;;3.20;99.90;;;;;;5099010;28;20263;-58
2020/12/06 02:21:44;;;;;;;25.17;15.00;;;3.20;99.90;;;;;;5098599;28;20191;-58
2020/12/06 02:24:11;;;;;;;26.23;15.70;;;3.20;99.90;;;;;;5098750;28;20626;-58
2020/12/06 02:26:48;;;;;;;25.55;15.13;;;3.30;99.90;;;;;;5098621;28;20156;-58
2020/12/06 02:29:14;;;;;;;25.40;15.70;;;3.30;99.90;;;;;;5098956;28;20163;-58
2020/12/06 02:31:40;;;;;;;24.20;15.57;;;3.40;99.90;;;;;;5098485;28;20172;-58
2020/12/06 02:34:07;;;;;;;28.45;17.30;;;3.40;99.90;;;;;;5098555;28;20216;-58
2020/12/06 02:36:33;;;;;;;24.98;15.07;;;3.40;99.90;;;;;;5098647;28;20195;-58
2020/12/06 02:38:58;;;;;;;26.25;15.85;;;3.50;99.90;;;;;;5098954;28;20537;-59
2020/12/06 02:41:37;;;;;;;25.70;14.70;;;3.50;99.90;;;;;;5098392;28;20591;-59
2020/12/06 02:44:04;;;;;;;27.02;14.90;;;3.50;99.90;;;;;;5098361;28;20163;-59
2020/12/06 02:46:29;;;;;;;23.10;14.40;;;3.50;99.90;;;;;;5098126;28;20517;-58
2020/12/06 02:48:55;;;;;;;27.33;15.68;;;3.50;99.90;;;;;;5098947;28;20258;-59
2020/12/06 02:51:21;;;;;;;28.08;16.52;;;3.50;99.90;;;;;;5098070;28;20172;-59
2020/12/06 02:53:46;;;;;;;25.25;15.35;;;3.50;99.90;;;;;;5098422;28;20179;-59
2020/12/06 02:56:12;;;;;;;27.55;16.00;;;3.50;99.90;;;;;;5098470;28;20540;-58
2020/12/06 02:58:37;;;;;;;27.02;15.63;;;3.50;99.90;;;;;;5097916;28;20206;-59
2020/12/06 03:01:03;;;;;;;24.83;15.38;;;3.60;99.90;;;;;;5097879;28;20163;-59
2020/12/06 03:03:28;;;;;;;28.30;16.30;;;3.60;99.90;;;;;;5098202;28;20214;-59
2020/12/06 03:05:53;;;;;;;26.45;16.02;;;3.60;99.90;;;;;;5097746;28;20163;-59
2020/12/06 03:08:19;;;;;;;25.17;15.15;;;3.60;99.90;;;;;;5097818;28;20167;-59
2020/12/06 03:10:44;;;;;;;25.27;14.90;;;3.60;99.90;;;;;;5097868;28;20163;-59
2020/12/06 03:13:10;;;;;;;24.27;15.10;;;3.60;99.90;;;;;;5097749;28;20159;-59
2020/12/06 03:15:35;;;;;;;27.92;15.77;;;3.60;99.90;;;;;;5097435;28;20167;-59
2020/12/06 03:18:01;;;;;;;27.77;15.05;;;3.60;99.90;;;;;;5097578;28;20187;-59
2020/12/06 03:20:26;;;;;;;25.55;15.95;;;3.60;99.90;;;;;;5097600;28;20164;-59
2020/12/06 03:22:52;;;;;;;25.75;14.75;;;3.60;99.90;;;;;;5097484;28;20163;-59
2020/12/06 03:25:17;;;;;;;25.58;15.27;;;3.60;99.90;;;;;;5097499;28;20179;-59
2020/12/06 03:27:43;;;;;;;26.73;15.10;;;3.60;99.90;;;;;;5097385;28;20159;-59
2020/12/06 03:30:08;;;;;;;25.90;15.48;;;3.60;99.90;;;;;;5097698;28;20167;-59
2020/12/06 03:32:34;;;;;;;23.88;15.48;;;3.70;99.90;;;;;;5097419;28;20289;-59
2020/12/06 03:34:59;;;;;;;25.40;15.63;;;3.70;99.90;;;;;;5097533;28;20163;-59
2020/12/06 03:37:25;;;;;;;27.20;15.77;;;3.70;99.90;;;;;;5097255;28;20171;-59
2020/12/06 03:39:50;;;;;;;26.55;15.63;;;3.80;99.90;;;;;;5097488;28;20214;-58
2020/12/06 03:42:16;;;;;;;22.70;14.75;;;3.80;99.90;;;;;;5097077;28;20242;-59
2020/12/06 03:44:42;;;;;;;26.27;15.70;;;3.80;99.90;;;;;;5097449;28;20168;-59
2020/12/06 03:47:07;;;;;;;26.38;15.88;;;3.80;99.90;;;;;;5097475;28;20151;-59
2020/12/06 03:49:32;;;;;;;25.67;15.75;;;3.80;99.90;;;;;;5104416;28;20607;-58
2020/12/06 03:51:58;;;;;;;27.60;15.73;;;3.80;99.90;;;;;;5106342;28;20175;-58
2020/12/06 03:54:23;;;;;;;24.77;15.55;;;3.90;99.90;;;;;;5100964;28;20172;-59
2020/12/06 03:56:49;;;;;;;25.85;16.05;;;3.90;99.90;;;;;;5105066;28;20189;-59
2020/12/06 03:59:14;;;;;;;25.33;15.35;;;3.90;99.90;;;;;;5098988;28;20512;-59
2020/12/06 04:01:40;;;;;;;24.75;15.20;;;3.90;99.90;;;;;;5101744;28;20222;-59
2020/12/06 04:04:05;;;;;;;24.73;15.32;;;3.90;99.90;;;;;;5098203;28;20163;-59
2020/12/06 04:06:31;;;;;;;25.88;15.45;;;4.00;99.90;;;;;;5104242;28;20167;-59
2020/12/06 04:08:56;;;;;;;24.23;15.25;;;4.00;99.90;;;;;;5097106;28;20167;-59
2020/12/06 04:11:22;;;;;;;23.02;14.88;;;4.00;99.90;;;;;;5096937;28;20233;-59
2020/12/06 04:13:48;;;;;;;25.70;15.75;;;4.00;99.90;;;;;;5097037;28;20657;-59
2020/12/06 04:16:13;;;;;;;24.98;15.05;;;4.00;99.90;;;;;;5096517;28;20178;-58
2020/12/06 04:18:39;;;;;;;26.85;15.68;;;4.00;99.90;;;;;;5096335;28;20618;-58
2020/12/06 04:21:04;;;;;;;22.95;15.10;;;4.10;99.90;;;;;;5096688;28;20236;-59
2020/12/06 04:23:30;;;;;;;24.38;15.63;;;4.10;99.90;;;;;;5096284;28;20167;-59
2020/12/06 04:25:55;;;;;;;24.73;15.10;;;4.10;99.90;;;;;;5096886;28;20587;-59
2020/12/06 04:28:21;;;;;;;26.45;15.85;;;4.10;99.90;;;;;;5095094;28;20167;-59
2020/12/06 04:30:46;;;;;;;23.55;15.07;;;4.20;99.90;;;;;;5096495;28;20167;-59
2020/12/06 04:33:12;;;;;;;23.98;14.45;;;4.10;99.90;;;;;;5096125;28;20175;-59
2020/12/06 04:35:37;;;;;;;24.98;15.35;;;4.20;99.90;;;;;;5096170;28;20172;-59
2020/12/06 04:38:03;;;;;;;25.38;15.23;;;4.20;99.90;;;;;;5095985;28;20206;-59
2020/12/06 04:40:29;;;;;;;25.67;15.57;;;4.20;99.90;;;;;;5096058;28;20164;-59
2020/12/06 04:42:55;;;;;;;25.95;15.48;;;4.20;99.90;;;;;;5096192;28;20179;-59
2020/12/06 04:45:21;;;;;;;25.77;15.70;;;4.10;99.90;;;;;;5095888;28;20183;-59
2020/12/06 04:48:08;;;;;;;25.25;15.23;;;4.20;99.90;;;;;;5094935;28;20258;-59
2020/12/06 04:50:41;;;;;;;25.05;14.68;;;4.10;99.90;;;;;;5096045;28;20170;-59
2020/12/06 04:53:07;;;;;;;25.80;15.60;;;4.20;99.90;;;;;;5094785;28;20224;-59
2020/12/06 04:55:34;;;;;;;23.55;14.82;;;4.10;99.90;;;;;;5095777;28;20232;-59
2020/12/06 04:58:03;;;;;;;27.20;16.15;;;4.20;99.90;;;;;;5094998;28;20195;-59
2020/12/06 05:00:34;;;;;;;25.27;15.70;;;4.10;99.90;;;;;;5095665;28;20155;-59
2020/12/06 05:03:10;;;;;;;24.75;15.48;;;4.20;99.90;;;;;;5095519;28;20611;-59
2020/12/06 05:05:37;;;;;;;24.25;14.85;;;4.10;99.90;;;;;;5095864;28;20534;-59
2020/12/06 05:08:08;;;;;;;26.42;16.08;;;4.20;99.90;;;;;;5095749;28;20514;-59
2020/12/06 05:10:36;;;;;;;27.33;16.00;;;4.20;99.90;;;;;;5095849;28;20609;-59
2020/12/06 05:13:02;;;;;;;24.17;15.50;;;4.20;99.90;;;;;;5095427;28;20250;-59
2020/12/06 05:15:27;;;;;;;24.73;16.38;;;4.20;99.90;;;;;;5095395;28;20191;-59
2020/12/06 05:17:54;;;;;;;28.30;16.40;;;4.20;99.90;;;;;;5095557;28;20644;-59
2020/12/06 05:20:20;;;;;;;27.30;16.92;;;4.30;99.90;;;;;;5095434;28;20164;-59
2020/12/06 05:22:45;;;;;;;24.48;15.52;;;4.20;99.90;;;;;;5095267;28;20523;-59
2020/12/06 05:25:15;;;;;;;27.33;16.50;;;4.30;99.90;;;;;;5095295;28;20187;-59
2020/12/06 05:27:41;;;;;;;27.52;16.00;;;4.30;99.90;;;;;;5095161;28;20606;-59
2020/12/06 05:30:06;;;;;;;25.60;15.90;;;4.30;99.90;;;;;;5095420;28;20164;-59
2020/12/06 05:32:33;;;;;;;25.67;16.10;;;4.30;99.90;;;;;;5094991;28;20173;-59
2020/12/06 05:34:58;;;;;;;27.52;16.40;;;4.40;99.90;;;;;;5095703;28;20182;-58
2020/12/06 05:37:25;;;;;;;27.33;16.42;;;4.40;99.90;;;;;;5094943;28;20167;-59
2020/12/06 05:40:13;;;;;;;26.55;16.90;;;4.40;99.90;;;;;;5094979;28;20206;-59
2020/12/06 05:42:40;;;;;;;28.92;16.95;;;4.40;99.90;;;;;;5095299;28;20159;-59
2020/12/06 05:45:06;;;;;;;26.33;15.77;;;4.40;99.90;;;;;;5094040;28;20544;-59
2020/12/06 05:47:32;;;;;;;27.88;16.73;;;4.40;99.90;;;;;;5095245;28;20137;-59
2020/12/06 05:49:58;;;;;;;29.48;17.77;;;4.40;99.90;;;;;;5095199;28;20471;-59
2020/12/06 05:52:27;;;;;;;28.08;17.15;;;4.40;99.90;;;;;;5095402;28;20178;-59
2020/12/06 05:54:55;;;;;;;29.77;16.25;;;4.50;99.90;;;;;;5095227;28;20214;-59
2020/12/06 05:57:22;;;;;;;26.23;16.00;;;4.50;99.90;;;;;;5095114;28;20247;-58
2020/12/06 05:59:47;;;;;;;27.60;17.02;;;4.50;99.90;;;;;;5094150;28;20480;-59
2020/12/06 06:02:14;;;;;;;27.95;16.73;;;4.50;99.90;;;;;;5094196;28;20193;-59
2020/12/06 06:04:40;;;;;;;26.85;17.02;;;4.50;99.90;;;;;;5093894;28;20206;-59
2020/12/06 06:07:10;;;;;;;29.73;17.52;;;4.60;99.90;;;;;;5094811;28;20607;-58
2020/12/06 06:09:41;;;;;;;27.33;16.95;;;4.50;99.90;;;;;;5094751;28;20168;-59
2020/12/06 06:12:24;;;;;;;28.58;17.35;;;4.60;99.90;;;;;;5095098;28;20220;-59
2020/12/06 06:14:51;;;;;;;29.98;17.40;;;4.60;99.90;;;;;;5094700;28;20163;-59
2020/12/06 06:17:17;;;;;;;28.88;16.80;;;4.60;99.90;;;;;;5094671;28;20218;-60
2020/12/06 06:19:44;;;;;;;30.00;17.65;;;4.60;99.90;;;;;;5094549;28;20273;-59
2020/12/06 06:22:13;;;;;;;27.35;16.80;;;4.60;99.90;;;;;;5094594;28;20569;-59
2020/12/06 06:24:40;;;;;;;29.10;17.20;;;4.60;99.90;;;;;;5077268;28;20206;-59
2020/12/06 06:27:06;;;;;;;28.48;17.33;;;4.70;99.90;;;;;;5094877;28;20592;-59
2020/12/06 06:29:31;;;;;;;30.48;16.95;;;4.70;99.90;;;;;;5094508;28;20164;-59
2020/12/06 06:31:57;;;;;;;31.30;17.50;;;4.60;99.90;;;;;;5094804;28;20199;-59
2020/12/06 06:34:24;;;;;;;26.90;16.95;;;4.70;99.90;;;;;;5094494;28;20171;-59
2020/12/06 06:36:50;;;;;;;29.42;17.65;;;4.70;99.90;;;;;;5094741;28;20175;-59
2020/12/06 06:39:21;;;;;;;29.58;17.42;;;4.60;99.90;;;;;;5094373;28;20183;-59
2020/12/06 06:41:59;;;;;;;28.63;17.63;;;4.60;99.90;;;;;;5094453;28;20152;-59
2020/12/06 06:44:26;;;;;;;31.10;18.20;;;4.60;99.90;;;;;;5094825;28;20160;-59
2020/12/06 06:46:51;;;;;;;30.23;17.90;;;4.60;99.90;;;;;;5093389;28;20234;-60
2020/12/06 06:49:18;;;;;;;31.73;19.27;;;4.60;99.90;;;;;;5094327;28;20199;-59
2020/12/06 06:51:51;;;;;;;32.72;19.58;;;4.60;99.90;;;;;;5095828;28;20182;-59
2020/12/06 06:54:27;;;;;;;32.55;18.95;;;4.60;99.90;;;;;;5098060;28;20148;-59
2020/12/06 06:56:54;;;;;;;30.63;18.17;;;4.60;99.90;;;;;;5098381;28;20220;-59
2020/12/06 06:59:38;;;;;;;32.45;18.25;;;4.60;99.90;;;;;;5098126;28;20214;-59
2020/12/06 07:02:06;;;;;;;34.08;19.25;;;4.50;99.90;;;;;;5098034;28;20156;-59
2020/12/06 07:04:32;;;;;;;32.25;19.05;;;4.50;99.90;;;;;;5097799;28;20164;-59
2020/12/06 07:06:58;;;;;;;30.77;18.50;;;4.50;99.90;;;;;;5098114;28;20587;-59
2020/12/06 07:09:26;;;;;;;31.48;19.45;;;4.50;99.90;;;;;;5097977;28;20163;-59
2020/12/06 07:11:57;;;;;;;31.63;18.38;;;4.50;99.90;;;;;;5098042;28;20250;-59
2020/12/06 07:14:24;;;;;;;33.58;18.52;;;4.50;99.90;;;;;;5097858;28;20151;-59
2020/12/06 07:16:53;;;;;;;31.85;19.25;;;4.50;99.90;;;;;;5097696;28;20588;-59
2020/12/06 07:19:19;;;;;;;35.47;18.42;;;4.50;99.90;;;;;;5097541;28;20218;-59
2020/12/06 07:21:47;;;;;;;33.78;19.08;;;4.40;99.90;;;;;;5097935;28;20603;-59
2020/12/06 07:24:13;;;;;;;34.20;20.02;;;4.40;99.90;;;;;;5097440;28;20171;-59
2020/12/06 07:26:40;;;;;;;35.13;20.60;;;4.40;99.90;;;;;;5097554;28;20217;-59
2020/12/06 07:29:06;;;;;;;36.78;21.27;;;4.40;99.90;;;;;;5096456;28;20266;-59
2020/12/06 07:31:32;;;;;;;35.40;19.40;;;4.40;99.90;;;;;;5097920;28;20509;-59
2020/12/06 07:33:57;;;;;;;34.05;19.35;;;4.40;99.90;;;;;;5097490;28;20175;-59
2020/12/06 07:36:24;;;;;;;35.22;19.50;;;4.40;99.90;;;;;;5097522;28;20180;-59
2020/12/06 07:38:50;;;;;;;37.70;21.38;;;4.40;99.90;;;;;;5097372;28;20261;-59
2020/12/06 07:41:15;;;;;;;35.13;21.60;;;4.50;99.90;;;;;;5097302;28;20164;-59
2020/12/06 07:43:41;;;;;;;35.03;20.00;;;4.50;99.90;;;;;;5097604;28;20233;-59
2020/12/06 07:46:17;;;;;;;34.08;19.70;;;4.50;99.90;;;;;;5097147;28;20179;-59
2020/12/06 07:48:43;;;;;;;38.70;20.77;;;4.50;99.90;;;;;;5097078;28;20236;-59
2020/12/06 07:51:09;;;;;;;37.78;21.10;;;4.40;99.90;;;;;;5097372;28;20167;-59
2020/12/06 07:53:49;;;;;;;41.40;22.88;;;4.50;99.90;;;;;;5097327;28;20171;-59
2020/12/06 07:56:22;;;;;;;41.50;22.33;;;4.50;99.90;;;;;;5097371;28;20159;-59
2020/12/06 07:59:06;;;;;;;44.75;21.95;;;4.60;99.90;;;;;;5097374;28;20494;-59
2020/12/06 08:01:32;;;;;;;37.17;22.40;;;4.60;99.90;;;;;;5096865;28;20591;-59
2020/12/06 08:03:58;;;;;;;38.03;22.05;;;4.70;99.90;;;;;;5095579;28;20195;-59
2020/12/06 08:06:26;;;;;;;38.53;22.15;;;4.70;99.90;;;;;;5096742;28;20175;-59
2020/12/06 08:08:54;;;;;;;36.90;21.60;;;4.70;99.90;;;;;;5098924;28;20239;-59
2020/12/06 08:11:20;;;;;;;39.78;23.08;;;4.70;99.90;;;;;;5102367;28;20558;-59
2020/12/06 08:13:53;;;;;;;39.38;23.63;;;4.70;99.90;;;;;;5102528;28;20172;-59
2020/12/06 08:16:18;;;;;;;35.88;22.05;;;4.70;99.90;;;;;;5100884;28;20172;-59
2020/12/06 08:18:44;;;;;;;38.78;22.60;;;4.70;99.90;;;;;;5102166;28;20237;-59
2020/12/06 08:21:10;;;;;;;41.83;23.95;;;4.80;99.90;;;;;;5102233;28;20155;-59
2020/12/06 08:23:37;;;;;;;38.97;23.65;;;4.80;99.90;;;;;;5108737;28;20223;-59
2020/12/06 08:26:03;;;;;;;40.70;22.85;;;4.80;99.90;;;;;;5108065;28;20220;-59
2020/12/06 08:28:29;;;;;;;41.80;24.30;;;4.90;99.90;;;;;;5100353;28;20460;-59
2020/12/06 08:30:55;;;;;;;38.83;22.33;;;4.90;99.90;;;;;;5096254;28;20163;-59
2020/12/06 08:33:25;;;;;;;37.47;22.50;;;4.90;99.90;;;;;;5095673;28;20202;-59
2020/12/06 08:35:52;;;;;;;38.47;23.38;;;4.90;99.90;;;;;;5095191;28;20233;-59
2020/12/06 08:38:19;;;;;;;42.33;23.27;;;5.00;99.90;;;;;;5095231;28;20191;-59
2020/12/06 08:41:04;;;;;;;45.22;25.45;;;5.00;99.90;;;;;;5096161;28;20661;-59
2020/12/06 08:43:49;;;;;;;40.80;24.05;;;5.00;99.90;;;;;;5096498;28;20171;-57
2020/12/06 08:46:20;;;;;;;40.38;23.42;;;4.90;99.90;;;;;;5095919;28;20191;-63
2020/12/06 08:48:47;;;;;;;43.20;25.40;;;4.90;99.90;;;;;;5096403;28;20163;-59
2020/12/06 08:51:32;;;;;;;41.95;23.98;;;4.90;99.90;;;;;;5096034;28;20216;-59
2020/12/06 08:54:01;;;;;;;40.58;24.45;;;4.90;99.90;;;;;;5096237;28;20266;-59
2020/12/06 08:56:36;;;;;;;40.05;23.75;;;4.90;99.90;;;;;;5095528;28;20197;-59
2020/12/06 08:59:12;;;;;;;43.95;24.65;;;4.90;99.90;;;;;;5095641;28;20187;-59
2020/12/06 09:01:52;;;;;;;41.50;23.75;;;4.90;99.90;;;;;;5095764;28;20176;-59
2020/12/06 09:04:18;;;;;;;42.70;25.38;;;4.90;99.90;;;;;;5095921;28;20560;-59
2020/12/06 09:06:44;;;;;;;44.95;25.75;;;4.90;99.90;;;;;;5095955;28;20176;-59
2020/12/06 09:09:09;;;;;;;44.42;25.58;;;4.90;99.90;;;;;;5095768;28;20168;-59
2020/12/06 09:11:35;;;;;;;42.45;24.80;;;5.00;99.90;;;;;;5095709;28;20179;-59
2020/12/06 09:14:01;;;;;;;41.33;25.23;;;5.00;99.90;;;;;;5093929;28;20182;-59
2020/12/06 09:16:26;;;;;;;40.35;24.83;;;5.00;99.90;;;;;;5095314;28;20532;-59
2020/12/06 09:18:52;;;;;;;45.67;26.48;;;5.10;99.90;;;;;;5095907;28;20195;-59
2020/12/06 09:21:17;;;;;;;43.28;25.48;;;5.10;99.90;;;;;;5095430;28;20622;-59
2020/12/06 09:23:44;;;;;;;43.40;25.13;;;5.20;99.90;;;;;;5095311;28;20160;-59
2020/12/06 09:26:10;;;;;;;41.92;25.30;;;5.30;99.90;;;;;;5095159;28;20155;-59
2020/12/06 09:28:35;;;;;;;43.72;25.50;;;5.30;99.90;;;;;;5095162;28;20183;-58
2020/12/06 09:31:01;;;;;;;41.78;24.90;;;5.40;99.90;;;;;;5095102;28;20301;-59
2020/12/06 09:33:27;;;;;;;42.97;25.27;;;5.50;99.90;;;;;;5094067;28;20224;-59
2020/12/06 09:35:53;;;;;;;43.08;24.80;;;5.60;99.90;;;;;;5095171;28;20175;-59
2020/12/06 09:38:18;;;;;;;39.50;24.27;;;5.60;99.90;;;;;;5094927;28;20657;-59
2020/12/06 09:40:44;;;;;;;41.55;24.17;;;5.70;99.90;;;;;;5094833;28;20168;-59
2020/12/06 09:43:10;;;;;;;41.03;24.25;;;5.70;99.90;;;;;;5094951;28;20155;-59
2020/12/06 09:45:36;;;;;;;38.45;24.17;;;5.80;99.90;;;;;;5094642;28;20179;-59
2020/12/06 09:48:01;;;;;;;39.38;24.00;;;5.90;99.90;;;;;;5095099;28;20663;-59
2020/12/06 09:50:27;;;;;;;35.95;22.52;;;5.90;99.90;;;;;;5094686;28;20171;-59
2020/12/06 09:52:52;;;;;;;35.97;22.83;;;5.90;99.90;;;;;;5095085;28;20184;-59
2020/12/06 09:55:18;;;;;;;38.58;23.75;;;5.90;99.90;;;;;;5094721;28;20175;-59
2020/12/06 09:57:43;;;;;;;35.60;22.92;;;6.00;99.90;;;;;;5095198;28;20471;-59
2020/12/06 10:00:09;;;;;;;38.50;23.52;;;6.00;99.90;;;;;;5094946;28;20172;-59
2020/12/06 10:02:34;;;;;;;37.90;22.45;;;6.10;99.90;;;;;;5094949;28;20195;-59
2020/12/06 10:05:00;;;;;;;37.38;22.83;;;6.10;99.90;;;;;;5094721;28;20163;-59
2020/12/06 10:07:25;;;;;;;35.85;23.30;;;6.20;99.90;;;;;;5094624;28;20171;-59
2020/12/06 10:09:51;;;;;;;36.28;22.70;;;6.30;99.90;;;;;;5094723;28;20168;-59
2020/12/06 10:12:17;;;;;;;39.42;23.08;;;6.30;99.90;;;;;;5094586;28;20167;-58
2020/12/06 10:14:43;;;;;;;35.95;22.10;;;6.40;99.90;;;;;;5094754;28;20168;-58
2020/12/06 10:17:09;;;;;;;37.90;23.15;;;6.40;99.90;;;;;;5094578;28;20164;-58
2020/12/06 10:19:34;;;;;;;35.55;22.40;;;6.40;99.90;;;;;;5094618;28;20610;-58
2020/12/06 10:22:00;;;;;;;36.45;22.25;;;6.50;99.90;;;;;;5094706;28;20159;-58
2020/12/06 10:24:25;;;;;;;34.95;21.48;;;6.50;99.90;;;;;;5094477;28;20183;-58
2020/12/06 10:26:52;;;;;;;32.50;21.63;;;6.60;99.90;;;;;;5098131;28;20159;-58
2020/12/06 10:29:18;;;;;;;31.75;20.65;;;6.60;99.90;;;;;;5098816;28;20167;-58
2020/12/06 10:31:43;;;;;;;33.75;21.20;;;6.60;99.90;;;;;;5098263;28;20305;-58
2020/12/06 10:34:09;;;;;;;34.60;21.52;;;6.60;99.90;;;;;;5098467;28;20566;-58
2020/12/06 10:36:34;;;;;;;33.08;21.17;;;6.60;99.90;;;;;;5098433;28;20248;-58
2020/12/06 10:39:00;;;;;;;31.27;20.92;;;6.60;99.90;;;;;;5098218;28;20195;-58
2020/12/06 10:41:25;;;;;;;31.70;20.67;;;6.60;99.90;;;;;;5098639;28;20172;-58
2020/12/06 10:43:51;;;;;;;32.83;21.38;;;6.70;99.90;;;;;;5099125;28;20156;-58
2020/12/06 10:46:16;;;;;;;32.58;21.45;;;6.70;99.90;;;;;;5098209;28;20492;-58
2020/12/06 10:48:42;;;;;;;32.00;20.33;;;6.70;99.90;;;;;;5097269;28;20171;-58
2020/12/06 10:51:07;;;;;;;31.25;20.13;;;6.80;99.90;;;;;;5098371;28;20201;-59
2020/12/06 10:53:33;;;;;;;29.50;19.20;;;6.80;99.90;;;;;;5099187;28;20171;-58
2020/12/06 10:55:58;;;;;;;31.23;20.23;;;6.80;99.90;;;;;;5098064;28;20587;-58
2020/12/06 10:58:24;;;;;;;31.23;20.67;;;6.90;99.90;;;;;;5098285;28;20187;-58
2020/12/06 11:00:50;;;;;;;29.25;19.42;;;6.90;99.90;;;;;;5098190;28;20264;-58
2020/12/06 11:03:16;;;;;;;29.75;19.80;;;6.90;99.90;;;;;;5098250;28;20168;-59
2020/12/06 11:05:41;;;;;;;32.15;19.88;;;7.00;99.90;;;;;;5097998;28;20163;-58
2020/12/06 11:08:07;;;;;;;29.90;19.02;;;7.00;99.90;;;;;;5097830;28;20599;-58
2020/12/06 11:10:32;;;;;;;33.90;21.23;;;7.10;99.90;;;;;;5098485;28;20484;-58
2020/12/06 11:12:58;;;;;;;29.77;20.38;;;7.10;99.90;;;;;;5097721;28;20179;-58
2020/12/06 11:15:23;;;;;;;33.53;20.45;;;7.20;99.90;;;;;;5096755;28;20175;-59
2020/12/06 11:17:49;;;;;;;30.17;20.17;;;7.20;99.90;;;;;;5097524;28;20164;-59
2020/12/06 11:20:14;;;;;;;28.75;18.63;;;7.20;99.90;;;;;;5097926;28;20661;-59
2020/12/06 11:22:40;;;;;;;31.45;19.33;;;7.30;99.90;;;;;;5097556;28;20537;-58
2020/12/06 11:25:05;;;;;;;26.45;18.55;;;7.30;99.90;;;;;;5097937;28;20167;-58
2020/12/06 11:27:31;;;;;;;28.48;18.27;;;7.40;99.90;;;;;;5097749;28;20171;-58
2020/12/06 11:29:56;;;;;;;31.08;19.65;;;7.40;99.90;;;;;;5097724;28;20532;-58
2020/12/06 11:32:23;;;;;;;29.98;18.90;;;7.40;99.90;;;;;;5097440;28;20167;-58
2020/12/06 11:34:49;;;;;;;33.92;19.42;;;7.50;99.90;;;;;;5097693;28;20602;-58
2020/12/06 11:37:14;;;;;;;29.25;19.15;;;7.50;99.90;;;;;;5096645;28;20172;-58
2020/12/06 11:39:40;;;;;;;27.50;17.77;;;7.60;99.90;;;;;;5097205;28;20202;-59
2020/12/06 11:42:05;;;;;;;31.17;19.45;;;7.50;99.90;;;;;;5097207;28;20170;-58
2020/12/06 11:44:31;;;;;;;28.13;19.05;;;7.50;99.90;;;;;;5097248;28;20164;-58
2020/12/06 11:46:56;;;;;;;27.00;18.67;;;7.50;99.90;;;;;;5097120;28;20502;-59
2020/12/06 11:49:22;;;;;;;31.17;17.95;;;7.60;99.90;;;;;;5097170;28;20178;-58
2020/12/06 11:51:47;;;;;;;29.13;18.13;;;7.50;99.90;;;;;;5097007;28;20607;-58
2020/12/06 11:54:13;;;;;;;28.35;18.48;;;7.60;99.90;;;;;;5097440;28;20182;-59
2020/12/06 11:56:38;;;;;;;28.85;17.95;;;7.60;99.90;;;;;;5097501;28;20163;-58
2020/12/06 11:59:04;;;;;;;31.02;18.52;;;7.50;99.90;;;;;;5096938;28;20264;-58
2020/12/06 12:01:29;;;;;;;28.13;17.70;;;7.60;99.90;;;;;;5096062;28;20164;-58
2020/12/06 12:03:55;;;;;;;27.50;17.92;;;7.60;99.90;;;;;;5097564;28;20171;-58
2020/12/06 12:06:20;;;;;;;30.52;19.23;;;7.60;99.90;;;;;;5098464;28;20179;-58
2020/12/06 12:08:46;;;;;;;28.70;18.25;;;7.60;99.90;;;;;;5099944;28;20511;-58
2020/12/06 12:11:12;;;;;;;30.58;18.13;;;7.60;99.90;;;;;;5098676;28;20248;-58
2020/12/06 12:13:38;;;;;;;25.23;16.67;;;7.60;99.90;;;;;;5100222;28;20167;-58
2020/12/06 12:16:03;;;;;;;27.25;17.25;;;7.60;99.90;;;;;;5099047;28;20182;-58
2020/12/06 12:18:29;;;;;;;26.08;17.30;;;7.50;99.90;;;;;;5101476;28;20207;-58
2020/12/06 12:20:54;;;;;;;27.58;17.20;;;7.50;99.90;;;;;;5099844;28;20172;-58
2020/12/06 12:23:20;;;;;;;27.02;18.20;;;7.60;99.90;;;;;;5096558;28;20206;-58
2020/12/06 12:25:46;;;;;;;27.00;17.38;;;7.60;99.90;;;;;;5097141;28;20563;-59
2020/12/06 12:28:11;;;;;;;23.45;16.77;;;7.60;99.90;;;;;;5096195;28;20614;-58
2020/12/06 12:30:37;;;;;;;26.65;17.63;;;7.60;99.90;;;;;;5096259;28;20221;-58
2020/12/06 12:33:03;;;;;;;27.45;16.77;;;7.60;99.90;;;;;;5096091;28;20608;-58